Logo Frankfurt-Egelsbach Airport
Hessische Flugplatz GmbH Egelsbach
Telefon : +49 (0)6103-9418-0
E-Mail : fly@egelsbach-airport.com
   

 

 

 

 

 

 

Aktuelle Daten

Öffnungszeiten: 0800 LT - SS+30 (max 2100 LT)

PPR: 0700 LT - 0800 LT, SS+30 - 2100 LT Tel +49 6103 9418-0

Beschränkung für NVFR-Anflüge mit HPA aufgehoben.

Behördlich vorgeschriebenes Briefing für NVFR-Anflüge mit HPA

» Behördlich vorgeschriebenes Briefing für NVFR-Anflüge mit HPA

Videos Streckenführung

 

Webcam

Webcam

Wetterdaten

Beobachtung von : 24-JUL-2014 - 06:16 UTC
Sonnenaufgang : 03:44 UTC
Sonnenuntergang : 19:20 UTC
Sicht : ausgefallen
Wolkenuntergrenze : nicht feststellbar
Wind : 020 / 8 kt
Wind extrem (10 min) : 350-050 / 4-11 kt
Temperatur : 19.5° Celsius
Taupunkt : 12.6° Celsius
QNH : 1014.2 hPa
Dichtehöhe : 990 ft

Daten werden automatisch generiert. Verfügbarkeit und Richtigkeit ohne Gewähr.
Mit freundlicher Unterstützung des Deutschen Wetterdienstes

Metar

736
SADL31 EDFE 240620
METAR EDFE 240620Z 02008KT CAVOK 20/13 Q1014=


Notam

E1096/14 - EGELSBACH NDB EH 386 NOT FLIGHT CHECKED. DO NOT USE. DISREGARD ALL SIGNALS. 07 MAY 15:00 2014 UNTIL 05 AUG 15:00 2014 ESTIMATED.